SAS93A EFHK-ESSA
Flight info
| Callsign | SAS93A |
|---|---|
| Flight time | 0h 46m |
| Altitude | 32000 |
| Route | ADIVO Y365 POGOK DCT RUNGA N872 XILAN |
| Aircraft | A320/M-SDE3FGHIJ1RWXYZ/ALB1 |
Departure
| Time | 2026-04-25 22:13 |
|---|---|
| Airport | Helsinki Vantaa Airport (EFHK) |
Arrival
| Time | 2026-04-25 22:59 |
|---|---|
| Airport | Stockholm-Arlanda Airport (ESSA) |
| Time | Latitude | Longitude | Altitude | Speed | Heading |
|---|---|---|---|---|---|
| 2026-04-25 21:30 | 60.31903 | 24.96962 | 162 ft | 0 kts | 242° |
| 2026-04-25 21:57 | 60.31904 | 24.96967 | 161 ft | 2 kts | 242° |
| 2026-04-25 21:57 | 60.31911 | 24.96996 | 161 ft | 2 kts | 242° |
| 2026-04-25 21:58 | 60.31920 | 24.97025 | 161 ft | 2 kts | 236° |
| 2026-04-25 21:58 | 60.31929 | 24.97052 | 161 ft | 2 kts | 214° |
| 2026-04-25 21:58 | 60.31944 | 24.97066 | 161 ft | 2 kts | 180° |
| 2026-04-25 21:58 | 60.31956 | 24.97064 | 161 ft | 0 kts | 157° |
| 2026-04-25 22:00 | 60.31955 | 24.97065 | 161 ft | 1 kts | 157° |
| 2026-04-25 22:01 | 60.31947 | 24.97073 | 161 ft | 2 kts | 157° |
| 2026-04-25 22:01 | 60.31937 | 24.97081 | 161 ft | 2 kts | 156° |
| 2026-04-25 22:01 | 60.31926 | 24.97091 | 161 ft | 2 kts | 156° |
| 2026-04-25 22:01 | 60.31919 | 24.97098 | 161 ft | 2 kts | 153° |
| 2026-04-25 22:02 | 60.31892 | 24.97126 | 161 ft | 4 kts | 153° |
| 2026-04-25 22:02 | 60.31865 | 24.97154 | 161 ft | 4 kts | 153° |
| 2026-04-25 22:02 | 60.31840 | 24.97180 | 161 ft | 4 kts | 153° |
| 2026-04-25 22:02 | 60.31819 | 24.97201 | 161 ft | 3 kts | 153° |
| 2026-04-25 22:03 | 60.31800 | 24.97221 | 161 ft | 3 kts | 153° |
| 2026-04-25 22:03 | 60.31782 | 24.97238 | 161 ft | 3 kts | 153° |
| 2026-04-25 22:03 | 60.31765 | 24.97256 | 161 ft | 3 kts | 153° |
| 2026-04-25 22:03 | 60.31749 | 24.97272 | 161 ft | 3 kts | 153° |
| 2026-04-25 22:04 | 60.31733 | 24.97288 | 161 ft | 3 kts | 153° |
| 2026-04-25 22:04 | 60.31716 | 24.97306 | 161 ft | 4 kts | 153° |
| 2026-04-25 22:04 | 60.31679 | 24.97343 | 161 ft | 7 kts | 153° |
| 2026-04-25 22:04 | 60.31638 | 24.97394 | 161 ft | 6 kts | 133° |
| 2026-04-25 22:05 | 60.31636 | 24.97474 | 161 ft | 6 kts | 86° |
| 2026-04-25 22:05 | 60.31622 | 24.97549 | 161 ft | 6 kts | 134° |
| 2026-04-25 22:05 | 60.31589 | 24.97588 | 161 ft | 6 kts | 151° |
| 2026-04-25 22:05 | 60.31555 | 24.97623 | 161 ft | 5 kts | 154° |
| 2026-04-25 22:06 | 60.31522 | 24.97656 | 161 ft | 5 kts | 153° |
| 2026-04-25 22:06 | 60.31491 | 24.97687 | 161 ft | 5 kts | 153° |
| 2026-04-25 22:06 | 60.31460 | 24.97720 | 161 ft | 5 kts | 151° |
| 2026-04-25 22:06 | 60.31426 | 24.97758 | 161 ft | 6 kts | 151° |
| 2026-04-25 22:07 | 60.31387 | 24.97799 | 161 ft | 7 kts | 153° |
| 2026-04-25 22:07 | 60.31356 | 24.97831 | 161 ft | 8 kts | 153° |
| 2026-04-25 22:07 | 60.31280 | 24.97910 | 161 ft | 10 kts | 153° |
| 2026-04-25 22:07 | 60.31210 | 24.97981 | 161 ft | 12 kts | 153° |
| 2026-04-25 22:08 | 60.31130 | 24.98063 | 161 ft | 14 kts | 153° |
| 2026-04-25 22:08 | 60.31058 | 24.98137 | 161 ft | 11 kts | 153° |
| 2026-04-25 22:08 | 60.30991 | 24.98199 | 161 ft | 6 kts | 158° |
| 2026-04-25 22:08 | 60.30947 | 24.98236 | 161 ft | 8 kts | 158° |
| 2026-04-25 22:09 | 60.30890 | 24.98283 | 161 ft | 10 kts | 158° |
| 2026-04-25 22:09 | 60.30821 | 24.98340 | 161 ft | 12 kts | 158° |
| 2026-04-25 22:09 | 60.30742 | 24.98410 | 161 ft | 13 kts | 157° |
| 2026-04-25 22:09 | 60.30679 | 24.98485 | 161 ft | 11 kts | 129° |
| 2026-04-25 22:10 | 60.30664 | 24.98620 | 161 ft | 6 kts | 77° |
| 2026-04-25 22:10 | 60.30666 | 24.98633 | 161 ft | 0 kts | 70° |
| 2026-04-25 22:11 | 60.30673 | 24.98659 | 160 ft | 6 kts | 61° |
| 2026-04-25 22:11 | 60.30728 | 24.98769 | 158 ft | 15 kts | 20° |
| 2026-04-25 22:11 | 60.30828 | 24.98704 | 157 ft | 16 kts | 333° |
| 2026-04-25 22:12 | 60.30932 | 24.98601 | 156 ft | 19 kts | 333° |
| 2026-04-25 22:12 | 60.31133 | 24.98403 | 157 ft | 55 kts | 331° |
| 2026-04-25 22:12 | 60.31653 | 24.97861 | 152 ft | 112 kts | 333° |
| 2026-04-25 22:12 | 60.32178 | 24.97313 | 268 ft | 130 kts | 332° |
| 2026-04-25 22:13 | 60.33210 | 24.96207 | 1133 ft | 127 kts | 328° |
| 2026-04-25 22:13 | 60.33915 | 24.95044 | 1691 ft | 140 kts | 320° |
| 2026-04-25 22:13 | 60.34567 | 24.93344 | 2046 ft | 167 kts | 309° |
| 2026-04-25 22:13 | 60.35051 | 24.90987 | 2396 ft | 197 kts | 294° |
| 2026-04-25 22:14 | 60.35169 | 24.87974 | 2781 ft | 236 kts | 274° |
| 2026-04-25 22:14 | 60.34649 | 24.84569 | 3397 ft | 271 kts | 250° |
| 2026-04-25 22:14 | 60.33723 | 24.81171 | 4312 ft | 279 kts | 248° |
| 2026-04-25 22:14 | 60.32787 | 24.77706 | 5287 ft | 283 kts | 247° |
| 2026-04-25 22:15 | 60.32047 | 24.74080 | 6288 ft | 278 kts | 263° |
| 2026-04-25 22:15 | 60.31677 | 24.70260 | 7267 ft | 278 kts | 265° |
| 2026-04-25 22:15 | 60.31318 | 24.66434 | 8263 ft | 278 kts | 265° |
| 2026-04-25 22:16 | 60.30592 | 24.58652 | 9876 ft | 294 kts | 264° |
| 2026-04-25 22:16 | 60.30205 | 24.54458 | 10252 ft | 313 kts | 264° |
| 2026-04-25 22:16 | 60.29795 | 24.50101 | 10959 ft | 319 kts | 263° |
| 2026-04-25 22:16 | 60.29373 | 24.45687 | 11753 ft | 323 kts | 263° |
| 2026-04-25 22:17 | 60.28941 | 24.41204 | 12559 ft | 327 kts | 263° |
| 2026-04-25 22:17 | 60.28503 | 24.36682 | 13363 ft | 330 kts | 263° |
| 2026-04-25 22:17 | 60.28060 | 24.32124 | 14097 ft | 333 kts | 263° |
| 2026-04-25 22:17 | 60.27613 | 24.27530 | 14823 ft | 336 kts | 262° |
| 2026-04-25 22:18 | 60.27163 | 24.22896 | 15556 ft | 338 kts | 262° |
| 2026-04-25 22:18 | 60.26708 | 24.18234 | 16273 ft | 340 kts | 262° |
| 2026-04-25 22:18 | 60.26249 | 24.13554 | 17003 ft | 343 kts | 262° |
| 2026-04-25 22:18 | 60.25787 | 24.08881 | 17721 ft | 346 kts | 262° |
| 2026-04-25 22:19 | 60.25311 | 24.04053 | 18373 ft | 349 kts | 262° |
| 2026-04-25 22:19 | 60.24837 | 23.99249 | 18999 ft | 351 kts | 262° |
| 2026-04-25 22:19 | 60.24356 | 23.94391 | 19637 ft | 355 kts | 261° |
| 2026-04-25 22:19 | 60.23868 | 23.89510 | 20273 ft | 358 kts | 261° |
| 2026-04-25 22:20 | 60.23379 | 23.84647 | 20861 ft | 361 kts | 261° |
| 2026-04-25 22:20 | 60.22878 | 23.79673 | 21457 ft | 365 kts | 261° |
| 2026-04-25 22:20 | 60.22369 | 23.74641 | 22047 ft | 368 kts | 261° |
| 2026-04-25 22:20 | 60.21857 | 23.69583 | 22640 ft | 371 kts | 261° |
| 2026-04-25 22:21 | 60.21337 | 23.64466 | 23201 ft | 375 kts | 261° |
| 2026-04-25 22:21 | 60.20809 | 23.59306 | 23674 ft | 378 kts | 261° |
| 2026-04-25 22:21 | 60.20274 | 23.54119 | 24148 ft | 381 kts | 261° |
| 2026-04-25 22:21 | 60.19732 | 23.48881 | 24619 ft | 384 kts | 261° |
| 2026-04-25 22:22 | 60.19184 | 23.43598 | 25077 ft | 387 kts | 260° |
| 2026-04-25 22:22 | 60.18632 | 23.38289 | 25522 ft | 390 kts | 260° |
| 2026-04-25 22:22 | 60.18074 | 23.32938 | 25977 ft | 393 kts | 260° |
| 2026-04-25 22:22 | 60.17510 | 23.27553 | 26423 ft | 396 kts | 260° |
| 2026-04-25 22:23 | 60.16920 | 23.21973 | 26863 ft | 399 kts | 260° |
| 2026-04-25 22:23 | 60.16356 | 23.16662 | 27265 ft | 401 kts | 260° |
| 2026-04-25 22:23 | 60.15769 | 23.11167 | 27692 ft | 404 kts | 260° |
| 2026-04-25 22:23 | 60.15177 | 23.05639 | 28103 ft | 407 kts | 260° |
| 2026-04-25 22:24 | 60.14580 | 23.00060 | 28514 ft | 410 kts | 260° |
| 2026-04-25 22:24 | 60.13979 | 22.94451 | 28905 ft | 412 kts | 260° |
| 2026-04-25 22:24 | 60.13369 | 22.88811 | 29329 ft | 415 kts | 259° |
| 2026-04-25 22:24 | 60.12751 | 22.83128 | 29722 ft | 418 kts | 259° |
| 2026-04-25 22:25 | 60.12128 | 22.77427 | 30048 ft | 421 kts | 259° |
| 2026-04-25 22:25 | 60.11496 | 22.71669 | 30361 ft | 424 kts | 259° |
| 2026-04-25 22:25 | 60.10920 | 22.66434 | 30658 ft | 426 kts | 259° |
| 2026-04-25 22:25 | 60.10278 | 22.60608 | 30966 ft | 429 kts | 259° |
| 2026-04-25 22:26 | 60.09629 | 22.54754 | 31282 ft | 432 kts | 259° |
| 2026-04-25 22:26 | 60.08975 | 22.48882 | 31567 ft | 432 kts | 259° |
| 2026-04-25 22:26 | 60.08320 | 22.43045 | 31631 ft | 423 kts | 259° |
| 2026-04-25 22:26 | 60.07682 | 22.37407 | 31637 ft | 409 kts | 259° |
| 2026-04-25 22:27 | 60.07055 | 22.31893 | 31641 ft | 404 kts | 259° |
| 2026-04-25 22:27 | 60.05811 | 22.20968 | 31649 ft | 401 kts | 259° |
| 2026-04-25 22:28 | 60.04571 | 22.10081 | 31652 ft | 401 kts | 259° |
| 2026-04-25 22:28 | 60.03324 | 21.99212 | 31657 ft | 401 kts | 259° |
| 2026-04-25 22:29 | 60.02062 | 21.88350 | 31663 ft | 401 kts | 259° |
| 2026-04-25 22:29 | 60.00787 | 21.77501 | 31654 ft | 401 kts | 259° |
| 2026-04-25 22:30 | 59.98871 | 21.61249 | 31612 ft | 399 kts | 259° |
| 2026-04-25 22:30 | 59.98233 | 21.55904 | 31357 ft | 391 kts | 259° |
| 2026-04-25 22:30 | 59.97815 | 21.52437 | 31188 ft | 387 kts | 259° |
| 2026-04-25 22:31 | 59.96974 | 21.45475 | 30862 ft | 385 kts | 259° |
| 2026-04-25 22:31 | 59.96357 | 21.40364 | 30603 ft | 382 kts | 259° |
| 2026-04-25 22:31 | 59.95726 | 21.35148 | 30364 ft | 381 kts | 259° |
| 2026-04-25 22:31 | 59.95104 | 21.30020 | 30126 ft | 379 kts | 259° |
| 2026-04-25 22:32 | 59.94492 | 21.24989 | 29895 ft | 377 kts | 259° |
| 2026-04-25 22:32 | 59.93872 | 21.19917 | 29614 ft | 375 kts | 259° |
| 2026-04-25 22:32 | 59.93254 | 21.14880 | 29331 ft | 373 kts | 259° |
| 2026-04-25 22:32 | 59.92635 | 21.09874 | 29044 ft | 371 kts | 259° |
| 2026-04-25 22:33 | 59.92017 | 21.04891 | 28761 ft | 369 kts | 259° |
| 2026-04-25 22:33 | 59.91403 | 20.99940 | 28460 ft | 367 kts | 259° |
| 2026-04-25 22:33 | 59.90792 | 20.95025 | 28183 ft | 365 kts | 259° |
| 2026-04-25 22:33 | 59.90182 | 20.90144 | 27909 ft | 363 kts | 259° |
| 2026-04-25 22:34 | 59.89572 | 20.85280 | 27630 ft | 361 kts | 259° |
| 2026-04-25 22:34 | 59.88967 | 20.80453 | 27349 ft | 358 kts | 260° |
| 2026-04-25 22:34 | 59.88364 | 20.75652 | 27077 ft | 356 kts | 260° |
| 2026-04-25 22:34 | 59.87761 | 20.70873 | 26818 ft | 355 kts | 260° |
| 2026-04-25 22:35 | 59.87161 | 20.66129 | 26556 ft | 353 kts | 260° |
| 2026-04-25 22:35 | 59.86563 | 20.61409 | 26289 ft | 351 kts | 260° |
| 2026-04-25 22:35 | 59.85965 | 20.56722 | 26027 ft | 349 kts | 260° |
| 2026-04-25 22:35 | 59.85365 | 20.52046 | 25769 ft | 347 kts | 260° |
| 2026-04-25 22:36 | 59.84768 | 20.47408 | 25522 ft | 345 kts | 260° |
| 2026-04-25 22:36 | 59.84172 | 20.42791 | 25253 ft | 344 kts | 260° |
| 2026-04-25 22:36 | 59.83580 | 20.38204 | 25011 ft | 342 kts | 260° |
| 2026-04-25 22:36 | 59.82992 | 20.33640 | 24765 ft | 340 kts | 260° |
| 2026-04-25 22:37 | 59.82402 | 20.29108 | 24524 ft | 339 kts | 260° |
| 2026-04-25 22:37 | 59.81809 | 20.24581 | 24262 ft | 337 kts | 260° |
| 2026-04-25 22:37 | 59.81218 | 20.20097 | 24024 ft | 335 kts | 260° |
| 2026-04-25 22:37 | 59.80632 | 20.15634 | 23814 ft | 331 kts | 260° |
| 2026-04-25 22:38 | 59.80052 | 20.11224 | 23480 ft | 327 kts | 260° |
| 2026-04-25 22:38 | 59.79481 | 20.06871 | 23064 ft | 325 kts | 260° |
| 2026-04-25 22:38 | 59.78910 | 20.02540 | 22671 ft | 322 kts | 260° |
| 2026-04-25 22:38 | 59.78341 | 19.98273 | 22301 ft | 318 kts | 260° |
| 2026-04-25 22:39 | 59.77777 | 19.94048 | 21925 ft | 315 kts | 260° |
| 2026-04-25 22:39 | 59.77217 | 19.89864 | 21561 ft | 312 kts | 260° |
| 2026-04-25 22:39 | 59.76663 | 19.85737 | 21190 ft | 309 kts | 260° |
| 2026-04-25 22:39 | 59.76111 | 19.81629 | 20832 ft | 306 kts | 259° |
| 2026-04-25 22:40 | 59.75748 | 19.78938 | 20584 ft | 305 kts | 259° |
| 2026-04-25 22:40 | 59.75207 | 19.74933 | 20218 ft | 302 kts | 259° |
| 2026-04-25 22:40 | 59.74489 | 19.69621 | 19760 ft | 299 kts | 259° |
| 2026-04-25 22:40 | 59.73951 | 19.65649 | 19398 ft | 297 kts | 259° |
| 2026-04-25 22:41 | 59.73415 | 19.61703 | 19046 ft | 296 kts | 259° |
| 2026-04-25 22:41 | 59.72885 | 19.57785 | 18690 ft | 294 kts | 259° |
| 2026-04-25 22:41 | 59.72355 | 19.53883 | 18347 ft | 292 kts | 259° |
| 2026-04-25 22:41 | 59.71825 | 19.49995 | 17983 ft | 291 kts | 259° |
| 2026-04-25 22:42 | 59.71468 | 19.47387 | 17722 ft | 290 kts | 259° |
| 2026-04-25 22:42 | 59.70940 | 19.43550 | 17367 ft | 287 kts | 259° |
| 2026-04-25 22:42 | 59.70414 | 19.39753 | 17026 ft | 285 kts | 259° |
| 2026-04-25 22:42 | 59.69891 | 19.35988 | 16678 ft | 282 kts | 259° |
| 2026-04-25 22:43 | 59.69379 | 19.32302 | 16355 ft | 280 kts | 259° |
| 2026-04-25 22:43 | 59.68857 | 19.28554 | 16012 ft | 278 kts | 259° |
| 2026-04-25 22:43 | 59.68345 | 19.24879 | 15687 ft | 276 kts | 259° |
| 2026-04-25 22:43 | 59.67836 | 19.21233 | 15358 ft | 274 kts | 258° |
| 2026-04-25 22:44 | 59.67326 | 19.17613 | 15036 ft | 273 kts | 258° |
| 2026-04-25 22:44 | 59.66825 | 19.14059 | 14706 ft | 271 kts | 258° |
| 2026-04-25 22:44 | 59.66322 | 19.10477 | 14391 ft | 269 kts | 258° |
| 2026-04-25 22:44 | 59.65816 | 19.06860 | 14062 ft | 268 kts | 258° |
| 2026-04-25 22:45 | 59.65315 | 19.03366 | 13733 ft | 268 kts | 258° |
| 2026-04-25 22:45 | 59.64786 | 18.99787 | 13377 ft | 267 kts | 257° |
| 2026-04-25 22:45 | 59.64260 | 18.96277 | 13043 ft | 265 kts | 257° |
| 2026-04-25 22:45 | 59.63743 | 18.92839 | 12719 ft | 263 kts | 257° |
| 2026-04-25 22:46 | 59.63215 | 18.89335 | 12388 ft | 262 kts | 257° |
| 2026-04-25 22:46 | 59.62700 | 18.85899 | 12069 ft | 260 kts | 257° |
| 2026-04-25 22:46 | 59.62185 | 18.82486 | 11748 ft | 259 kts | 257° |
| 2026-04-25 22:46 | 59.61679 | 18.79140 | 11426 ft | 258 kts | 257° |
| 2026-04-25 22:47 | 59.61166 | 18.75762 | 11117 ft | 256 kts | 257° |
| 2026-04-25 22:47 | 59.60656 | 18.72398 | 10804 ft | 255 kts | 257° |
| 2026-04-25 22:47 | 59.60147 | 18.69039 | 10495 ft | 254 kts | 257° |
| 2026-04-25 22:47 | 59.59641 | 18.65700 | 10184 ft | 254 kts | 257° |
| 2026-04-25 22:48 | 59.59137 | 18.62369 | 9877 ft | 253 kts | 257° |
| 2026-04-25 22:48 | 59.58633 | 18.59050 | 9550 ft | 253 kts | 257° |
| 2026-04-25 22:48 | 59.58128 | 18.55738 | 9228 ft | 252 kts | 257° |
| 2026-04-25 22:48 | 59.57625 | 18.52438 | 8921 ft | 250 kts | 257° |
| 2026-04-25 22:49 | 59.57126 | 18.49164 | 8614 ft | 249 kts | 257° |
| 2026-04-25 22:49 | 59.56622 | 18.45898 | 8304 ft | 248 kts | 256° |
| 2026-04-25 22:49 | 59.56081 | 18.42673 | 8006 ft | 247 kts | 255° |
| 2026-04-25 22:49 | 59.55518 | 18.39471 | 7699 ft | 247 kts | 254° |
| 2026-04-25 22:50 | 59.54950 | 18.36284 | 7394 ft | 246 kts | 254° |
| 2026-04-25 22:50 | 59.54385 | 18.33107 | 7087 ft | 246 kts | 254° |
| 2026-04-25 22:50 | 59.53819 | 18.29933 | 6769 ft | 245 kts | 253° |
| 2026-04-25 22:50 | 59.53253 | 18.26763 | 6470 ft | 245 kts | 253° |
| 2026-04-25 22:51 | 59.52689 | 18.23588 | 6158 ft | 245 kts | 253° |
| 2026-04-25 22:51 | 59.52126 | 18.20415 | 5842 ft | 245 kts | 253° |
| 2026-04-25 22:51 | 59.51565 | 18.17259 | 5523 ft | 244 kts | 253° |
| 2026-04-25 22:51 | 59.50988 | 18.14118 | 5214 ft | 244 kts | 249° |
| 2026-04-25 22:52 | 59.50146 | 18.11274 | 5122 ft | 236 kts | 240° |
| 2026-04-25 22:52 | 59.49264 | 18.08649 | 5058 ft | 224 kts | 240° |
| 2026-04-25 22:52 | 59.48433 | 18.06169 | 5009 ft | 211 kts | 240° |
| 2026-04-25 22:52 | 59.47907 | 18.04594 | 4972 ft | 207 kts | 240° |
| 2026-04-25 22:53 | 59.46848 | 18.01426 | 4837 ft | 208 kts | 240° |
| 2026-04-25 22:53 | 59.46143 | 17.98969 | 4505 ft | 206 kts | 254° |
| 2026-04-25 22:53 | 59.45906 | 17.96212 | 4094 ft | 206 kts | 274° |
| 2026-04-25 22:53 | 59.46120 | 17.93417 | 3677 ft | 208 kts | 283° |
| 2026-04-25 22:54 | 59.46383 | 17.90656 | 3288 ft | 202 kts | 283° |
| 2026-04-25 22:54 | 59.46659 | 17.88032 | 3159 ft | 191 kts | 292° |
| 2026-04-25 22:54 | 59.47472 | 17.86152 | 3029 ft | 181 kts | 334° |
| 2026-04-25 22:54 | 59.48695 | 17.85919 | 2909 ft | 181 kts | 12° |
| 2026-04-25 22:55 | 59.49917 | 17.86517 | 2764 ft | 180 kts | 5° |
| 2026-04-25 22:55 | 59.51128 | 17.86857 | 2650 ft | 169 kts | 6° |
| 2026-04-25 22:55 | 59.52228 | 17.87213 | 2525 ft | 152 kts | 7° |
| 2026-04-25 22:55 | 59.53229 | 17.87559 | 2338 ft | 141 kts | 7° |
| 2026-04-25 22:56 | 59.54164 | 17.87888 | 2150 ft | 133 kts | 7° |
| 2026-04-25 22:56 | 59.55062 | 17.88207 | 1978 ft | 130 kts | 7° |
| 2026-04-25 22:56 | 59.55947 | 17.88522 | 1829 ft | 129 kts | 7° |
| 2026-04-25 22:56 | 59.56824 | 17.88840 | 1677 ft | 128 kts | 8° |
| 2026-04-25 22:57 | 59.57698 | 17.89152 | 1500 ft | 128 kts | 7° |
| 2026-04-25 22:57 | 59.58571 | 17.89468 | 1351 ft | 127 kts | 7° |
| 2026-04-25 22:57 | 59.59444 | 17.89782 | 1125 ft | 128 kts | 8° |
| 2026-04-25 22:57 | 59.60308 | 17.90095 | 874 ft | 128 kts | 8° |
| 2026-04-25 22:58 | 59.61185 | 17.90409 | 676 ft | 129 kts | 7° |
| 2026-04-25 22:58 | 59.62084 | 17.90730 | 482 ft | 130 kts | 7° |
| 2026-04-25 22:58 | 59.62970 | 17.91050 | 313 ft | 132 kts | 6° |
| 2026-04-25 22:58 | 59.63876 | 17.91376 | 137 ft | 133 kts | 7° |
| 2026-04-25 22:59 | 59.64649 | 17.91646 | 117 ft | 76 kts | 15° |
| 2026-04-25 22:59 | 59.64930 | 17.91760 | 116 ft | 29 kts | 12° |
| 2026-04-25 22:59 | 59.65118 | 17.91851 | 116 ft | 18 kts | 25° |
| 2026-04-25 22:59 | 59.65215 | 17.91958 | 115 ft | 14 kts | 32° |
| 2026-04-25 23:00 | 59.65288 | 17.92082 | 119 ft | 13 kts | 47° |
| 2026-04-25 23:00 | 59.65318 | 17.92248 | 118 ft | 10 kts | 110° |
| 2026-04-25 23:00 | 59.65283 | 17.92393 | 115 ft | 13 kts | 140° |
| 2026-04-25 23:00 | 59.65187 | 17.92376 | 116 ft | 16 kts | 192° |
| 2026-04-25 23:01 | 59.65121 | 17.92389 | 116 ft | 6 kts | 96° |
| 2026-04-25 23:01 | 59.65136 | 17.92492 | 115 ft | 11 kts | 32° |
| 2026-04-25 23:01 | 59.65223 | 17.92528 | 116 ft | 15 kts | 10° |
| 2026-04-25 23:01 | 59.65236 | 17.92674 | 118 ft | 11 kts | 107° |
| 2026-04-25 23:02 | 59.65213 | 17.92817 | 113 ft | 12 kts | 108° |
| 2026-04-25 23:02 | 59.65188 | 17.92945 | 117 ft | 5 kts | 79° |
| 2026-04-25 23:02 | 59.65197 | 17.92988 | 115 ft | 1 kts | 67° |
| 2026-04-25 23:02 | 59.65200 | 17.93005 | 113 ft | 0 kts | 68° |